createdAt,value
2023-03-24T00:00:26.855Z,72.14
2023-03-24T00:01:49.710Z,72.15
2023-03-24T00:02:52.858Z,72.15
2023-03-24T00:03:55.812Z,72.24
2023-03-24T00:04:58.798Z,72.30
2023-03-24T00:06:03.756Z,72.35
2023-03-24T00:07:06.484Z,72.39
2023-03-24T00:08:09.328Z,72.33
2023-03-24T00:09:12.064Z,72.36
2023-03-24T00:10:18.161Z,72.35
2023-03-24T00:11:21.425Z,72.35
2023-03-24T00:12:25.387Z,72.40
2023-03-24T00:13:29.345Z,72.51
2023-03-24T00:14:32.094Z,72.54
2023-03-24T00:15:36.273Z,72.60
2023-03-24T00:16:42.907Z,72.57
2023-03-24T00:17:50.393Z,72.53
2023-03-24T00:18:54.304Z,72.60
2023-03-24T00:19:58.079Z,72.67
2023-03-24T00:21:00.898Z,72.72
2023-03-24T00:22:04.291Z,72.75
2023-03-24T00:23:07.054Z,72.84
2023-03-24T00:24:11.725Z,72.93
2023-03-24T00:25:15.474Z,72.95
2023-03-24T00:26:18.269Z,73.10
2023-03-24T00:27:21.175Z,73.13
2023-03-24T00:28:24.015Z,73.14
2023-03-24T00:29:27.468Z,73.27
2023-03-24T00:30:30.409Z,73.34
2023-03-24T00:31:33.361Z,73.33
2023-03-24T00:32:38.777Z,73.36
2023-03-24T00:33:43.897Z,73.36
2023-03-24T00:34:46.658Z,73.40
2023-03-24T00:35:49.708Z,73.46
2023-03-24T00:36:52.547Z,73.42
2023-03-24T00:37:55.445Z,73.42
2023-03-24T00:38:58.291Z,73.53
2023-03-24T00:40:01.123Z,73.57
2023-03-24T00:41:07.777Z,73.63
2023-03-24T00:42:10.924Z,73.66
2023-03-24T00:43:13.716Z,73.70
2023-03-24T00:44:20.401Z,73.68
2023-03-24T00:45:24.488Z,73.68
2023-03-24T00:46:27.757Z,73.75
2023-03-24T00:47:36.801Z,73.76
2023-03-24T00:48:42.564Z,73.80
2023-03-24T00:49:45.348Z,73.83
2023-03-24T00:50:49.557Z,73.92
2023-03-24T00:51:52.366Z,73.84
2023-03-24T00:52:56.110Z,73.86
2023-03-24T00:53:59.371Z,73.91
2023-03-24T00:55:05.067Z,73.93
2023-03-24T00:56:09.212Z,73.92
2023-03-24T00:57:21.650Z,73.91
2023-03-24T00:58:25.909Z,73.98
2023-03-24T00:59:29.800Z,73.96
2023-03-24T01:00:32.696Z,74.10
2023-03-24T01:01:36.719Z,74.11
2023-03-24T01:02:40.183Z,74.11
2023-03-24T01:03:48.332Z,74.19
2023-03-24T01:04:56.561Z,74.36
2023-03-24T01:06:04.560Z,74.51
2023-03-24T01:07:08.869Z,74.44
2023-03-24T01:08:11.647Z,74.64
2023-03-24T01:09:14.497Z,74.73
2023-03-24T01:10:17.864Z,74.60
2023-03-24T01:11:24.289Z,74.66
2023-03-24T01:12:32.533Z,74.64
2023-03-24T01:13:35.341Z,74.65
2023-03-24T01:14:38.092Z,74.65
2023-03-24T01:15:41.536Z,74.63
2023-03-24T01:16:44.356Z,74.66
2023-03-24T01:17:48.732Z,74.84
2023-03-24T01:18:52.712Z,74.72
2023-03-24T01:19:56.193Z,74.63
2023-03-24T01:20:59.046Z,74.58
2023-03-24T01:22:02.589Z,74.67
2023-03-24T01:23:05.965Z,74.67
2023-03-24T01:24:09.365Z,74.66
2023-03-24T01:25:16.605Z,74.91
2023-03-24T01:26:19.886Z,75.02
2023-03-24T01:27:23.170Z,74.94
2023-03-24T01:28:27.246Z,74.90
2023-03-24T01:29:30.513Z,74.93
2023-03-24T01:30:33.449Z,75.10
2023-03-24T01:31:36.645Z,75.06
2023-03-24T01:32:39.545Z,75.26
2023-03-24T01:33:42.370Z,75.23
2023-03-24T01:34:45.130Z,75.17
2023-03-24T01:35:48.599Z,75.29
2023-03-24T01:36:51.464Z,75.34
2023-03-24T01:37:54.243Z,75.37
2023-03-24T01:38:58.530Z,75.32
2023-03-24T01:40:02.285Z,75.38
2023-03-24T01:41:06.469Z,75.41
2023-03-24T01:42:18.966Z,75.27
2023-03-24T01:43:27.227Z,75.25
2023-03-24T01:44:38.243Z,75.34
2023-03-24T01:45:59.643Z,75.42
2023-03-24T01:47:06.145Z,75.55
2023-03-24T01:48:17.049Z,75.59
2023-03-24T01:49:21.069Z,75.66
2023-03-24T01:50:24.531Z,75.63
2023-03-24T01:51:49.228Z,75.71
2023-03-24T01:52:52.257Z,75.86
2023-03-24T01:54:22.021Z,75.75
2023-03-24T01:55:29.855Z,75.80
2023-03-24T01:56:36.916Z,75.81
2023-03-24T01:57:47.697Z,75.71
2023-03-24T01:58:56.552Z,75.70
2023-03-24T02:00:12.719Z,75.78
2023-03-24T02:01:34.438Z,75.91
2023-03-24T02:03:07.968Z,75.81
2023-03-24T02:04:16.136Z,75.73
2023-03-24T02:05:19.645Z,75.90
2023-03-24T02:06:26.111Z,75.94
2023-03-24T02:07:52.295Z,75.97
2023-03-24T02:08:58.693Z,76.10
2023-03-24T02:10:13.467Z,76.20
2023-03-24T02:11:16.519Z,76.28
2023-03-24T02:12:25.833Z,76.34
2023-03-24T02:13:29.365Z,76.41
2023-03-24T02:14:32.421Z,76.45
2023-03-24T02:15:43.148Z,76.46
2023-03-24T02:16:57.778Z,76.58
2023-03-24T02:18:25.499Z,76.70
2023-03-24T02:20:09.733Z,76.76
2023-03-24T02:21:36.038Z,76.82
2023-03-24T02:23:19.199Z,76.84
2023-03-24T02:24:34.094Z,76.78
2023-03-24T02:25:55.833Z,76.90
2023-03-24T02:27:20.464Z,76.86
2023-03-24T02:28:48.627Z,77.09
2023-03-24T02:30:04.215Z,77.23
2023-03-24T02:31:29.672Z,77.18
2023-03-24T02:33:27.285Z,77.19
2023-03-24T02:34:56.349Z,77.30
2023-03-24T02:36:08.572Z,77.37
2023-03-24T02:37:18.957Z,77.43
2023-03-24T02:38:35.020Z,77.50
2023-03-24T02:40:22.647Z,77.55
2023-03-24T02:41:55.995Z,77.64
2023-03-24T02:43:29.574Z,77.77
2023-03-24T02:45:17.163Z,77.67
2023-03-24T02:47:01.252Z,77.68
2023-03-24T02:48:21.120Z,77.62
2023-03-24T02:49:42.849Z,77.44
2023-03-24T02:51:00.983Z,77.50
2023-03-24T02:52:12.711Z,77.51
2023-03-24T02:53:39.550Z,77.48
2023-03-24T02:55:01.853Z,77.38
2023-03-24T02:56:16.960Z,77.38
2023-03-24T02:57:42.985Z,77.59
2023-03-24T02:59:10.394Z,77.64
2023-03-24T03:00:22.388Z,77.76
2023-03-24T03:02:06.364Z,77.83
2023-03-24T03:03:38.369Z,77.92
2023-03-24T03:04:50.199Z,77.98
2023-03-24T03:05:58.808Z,78.02
2023-03-24T03:07:10.198Z,78.08
2023-03-24T03:08:17.510Z,78.11
2023-03-24T03:09:22.755Z,78.10
2023-03-24T03:10:31.118Z,78.17
2023-03-24T03:11:34.243Z,78.26
2023-03-24T03:12:39.334Z,78.29
2023-03-24T03:13:52.541Z,78.42
2023-03-24T03:15:02.616Z,78.46
2023-03-24T03:16:11.044Z,78.57
2023-03-24T03:17:18.785Z,78.56
2023-03-24T03:18:43.773Z,78.67
2023-03-24T03:19:55.521Z,78.83
2023-03-24T03:21:04.586Z,78.95
2023-03-24T03:22:21.065Z,79.04
2023-03-24T03:23:28.507Z,79.16
2023-03-24T03:24:37.351Z,79.15
2023-03-24T03:25:46.386Z,79.26
2023-03-24T03:26:50.091Z,79.27
2023-03-24T03:27:56.828Z,79.40
2023-03-24T03:29:06.017Z,79.35
2023-03-24T03:30:20.200Z,79.36
2023-03-24T03:31:30.097Z,79.46
2023-03-24T03:32:39.167Z,79.42
2023-03-24T03:34:00.044Z,79.33
2023-03-24T03:35:14.686Z,79.35
2023-03-24T03:36:23.789Z,79.32
2023-03-24T03:37:52.804Z,79.22
2023-03-24T03:39:10.223Z,79.10
2023-03-24T03:40:20.692Z,79.01
2023-03-24T03:41:26.263Z,79.03
2023-03-24T03:42:29.289Z,79.07
2023-03-24T03:43:33.718Z,79.03
2023-03-24T03:44:36.695Z,78.90
2023-03-24T03:45:39.654Z,79.08
2023-03-24T03:46:43.142Z,78.90
2023-03-24T03:47:48.435Z,78.70
2023-03-24T03:48:51.583Z,78.77
2023-03-24T03:49:54.920Z,78.91
2023-03-24T03:51:10.302Z,78.90
2023-03-24T03:52:17.669Z,78.85
2023-03-24T03:53:27.113Z,78.82
2023-03-24T03:54:31.846Z,78.81
2023-03-24T03:55:35.577Z,78.81
2023-03-24T03:56:39.668Z,78.82
2023-03-24T03:57:55.700Z,78.97
2023-03-24T03:59:07.738Z,78.92
2023-03-24T04:00:16.986Z,79.03
2023-03-24T04:01:34.266Z,79.01
2023-03-24T04:02:58.710Z,78.95
2023-03-24T04:04:09.531Z,78.97
2023-03-24T04:05:35.259Z,78.92
2023-03-24T04:06:53.912Z,78.87
2023-03-24T04:08:23.288Z,78.84
2023-03-24T04:10:15.456Z,78.92
2023-03-24T04:11:32.174Z,78.93
2023-03-24T04:13:09.702Z,78.99
2023-03-24T04:14:51.917Z,78.73
2023-03-24T04:16:47.104Z,78.59
2023-03-24T04:18:11.776Z,78.58
2023-03-24T04:19:46.110Z,78.76
2023-03-24T04:21:06.317Z,78.84
2023-03-24T04:22:15.005Z,78.82
2023-03-24T04:23:28.418Z,78.68
2023-03-24T04:24:50.497Z,78.58
2023-03-24T04:26:26.705Z,78.63
2023-03-24T04:27:47.830Z,78.64
2023-03-24T04:28:58.144Z,78.82
2023-03-24T04:30:06.332Z,78.88
2023-03-24T04:31:19.043Z,78.89
2023-03-24T04:32:28.604Z,78.92
2023-03-24T04:33:40.315Z,79.19
2023-03-24T04:34:50.930Z,79.10
2023-03-24T04:36:42.453Z,79.01
2023-03-24T04:38:18.619Z,78.97
2023-03-24T04:39:29.019Z,79.14
2023-03-24T04:40:36.923Z,79.28
2023-03-24T04:41:43.156Z,79.34
2023-03-24T04:42:54.645Z,79.35
2023-03-24T04:44:01.300Z,79.27
2023-03-24T04:45:07.115Z,79.22
2023-03-24T04:46:10.304Z,79.08
2023-03-24T04:47:38.616Z,79.19
2023-03-24T04:48:57.538Z,79.31
2023-03-24T04:50:11.442Z,79.38
2023-03-24T04:51:16.985Z,79.50
2023-03-24T04:52:29.418Z,79.47
2023-03-24T04:53:32.574Z,79.37
2023-03-24T04:54:35.521Z,79.18
2023-03-24T04:55:49.982Z,79.43
2023-03-24T04:57:04.504Z,79.61
2023-03-24T04:58:22.285Z,79.67
2023-03-24T04:59:26.185Z,79.66
2023-03-24T05:00:29.572Z,79.49
2023-03-24T05:01:32.805Z,79.55
2023-03-24T05:02:53.673Z,79.77
2023-03-24T05:04:02.240Z,79.83
2023-03-24T05:05:05.465Z,79.93
2023-03-24T05:06:16.931Z,79.94
2023-03-24T05:07:21.416Z,79.96
2023-03-24T05:08:26.259Z,79.96
2023-03-24T05:09:31.575Z,79.82
2023-03-24T05:10:35.979Z,79.82
2023-03-24T05:11:40.383Z,79.91
2023-03-24T05:12:44.104Z,79.96
2023-03-24T05:13:49.500Z,79.76
2023-03-24T05:14:52.383Z,79.69
2023-03-24T05:15:55.463Z,79.67
2023-03-24T05:17:05.866Z,79.57
2023-03-24T05:18:10.104Z,79.61
2023-03-24T05:19:13.139Z,79.64
2023-03-24T05:20:16.532Z,79.82
2023-03-24T05:21:22.217Z,79.80
2023-03-24T05:22:25.326Z,79.86
2023-03-24T05:23:28.097Z,79.80
2023-03-24T05:24:31.459Z,80.00
2023-03-24T05:25:35.295Z,79.91
2023-03-24T05:26:38.054Z,80.07
2023-03-24T05:27:48.583Z,80.12
2023-03-24T05:28:57.119Z,80.14
2023-03-24T05:29:59.957Z,80.28
2023-03-24T05:31:03.424Z,80.22
2023-03-24T05:32:26.077Z,80.12
2023-03-24T05:33:28.969Z,80.14
2023-03-24T05:34:32.137Z,80.13
2023-03-24T05:35:49.213Z,80.12
2023-03-24T05:36:52.210Z,80.08
2023-03-24T05:37:57.026Z,80.10
2023-03-24T05:38:59.899Z,80.03
2023-03-24T05:40:11.963Z,80.02
2023-03-24T05:41:25.373Z,79.99
2023-03-24T05:42:28.610Z,80.07
2023-03-24T05:43:32.055Z,80.07
2023-03-24T05:44:43.785Z,79.98
2023-03-24T05:45:51.432Z,80.00
2023-03-24T05:47:05.798Z,79.93
2023-03-24T05:48:08.710Z,79.94
2023-03-24T05:49:31.798Z,79.98
2023-03-24T05:50:34.826Z,80.00
2023-03-24T05:51:37.836Z,79.97
2023-03-24T05:52:43.290Z,80.02
2023-03-24T05:54:11.549Z,80.14
2023-03-24T05:55:19.447Z,80.02
2023-03-24T05:56:23.658Z,80.03
2023-03-24T05:57:44.801Z,80.11
2023-03-24T05:58:57.567Z,79.96
2023-03-24T06:00:09.507Z,79.85
2023-03-24T06:01:19.090Z,79.87
2023-03-24T06:02:25.312Z,79.92
2023-03-24T06:03:34.701Z,79.81
2023-03-24T06:04:46.718Z,79.83
2023-03-24T06:05:52.778Z,79.86
2023-03-24T06:06:59.014Z,79.80
2023-03-24T06:08:04.010Z,79.85
2023-03-24T06:09:09.146Z,79.81
2023-03-24T06:10:14.426Z,79.90
2023-03-24T06:11:21.604Z,79.86
2023-03-24T06:12:31.024Z,79.85
2023-03-24T06:13:37.957Z,79.86
2023-03-24T06:14:40.838Z,79.95
2023-03-24T06:15:48.041Z,79.94
2023-03-24T06:17:14.889Z,79.92
2023-03-24T06:18:18.865Z,79.90
2023-03-24T06:19:22.687Z,79.90
2023-03-24T06:20:50.793Z,79.91
2023-03-24T06:22:00.627Z,79.99
2023-03-24T06:23:05.453Z,80.06
2023-03-24T06:24:21.580Z,80.08
2023-03-24T06:25:28.470Z,80.06
2023-03-24T06:26:38.233Z,80.13
2023-03-24T06:27:47.871Z,80.09
2023-03-24T06:28:55.323Z,80.15
2023-03-24T06:29:59.468Z,80.16
2023-03-24T06:31:05.488Z,80.15
2023-03-24T06:32:11.006Z,80.12
2023-03-24T06:33:17.976Z,80.16
2023-03-24T06:34:22.248Z,80.13
2023-03-24T06:35:36.038Z,80.11
2023-03-24T06:36:42.364Z,80.12
2023-03-24T06:37:45.962Z,80.10
2023-03-24T06:38:51.525Z,80.09
2023-03-24T06:39:56.263Z,80.09
2023-03-24T06:41:04.653Z,80.13
2023-03-24T06:42:07.570Z,80.09
2023-03-24T06:43:10.775Z,80.07
2023-03-24T06:44:14.701Z,80.08
2023-03-24T06:45:17.998Z,80.04
2023-03-24T06:46:22.104Z,79.97
2023-03-24T06:47:25.065Z,79.94
2023-03-24T06:48:28.276Z,79.96
2023-03-24T06:49:37.298Z,80.03
2023-03-24T06:50:41.172Z,80.04
2023-03-24T06:51:45.401Z,79.96
2023-03-24T06:52:49.010Z,79.94
2023-03-24T06:53:53.929Z,79.97
2023-03-24T06:54:58.262Z,79.85
2023-03-24T06:56:02.510Z,79.80
2023-03-24T06:57:11.213Z,79.81
2023-03-24T06:58:34.538Z,79.94
2023-03-24T06:59:41.097Z,79.94
2023-03-24T07:00:46.739Z,79.99
2023-03-24T07:02:02.310Z,79.89
2023-03-24T07:03:09.086Z,79.81
2023-03-24T07:04:13.058Z,79.68
2023-03-24T07:05:29.501Z,79.78
2023-03-24T07:06:40.260Z,79.83
2023-03-24T07:08:28.036Z,79.90
2023-03-24T07:09:18.910Z,79.96
2023-03-24T07:10:21.836Z,79.94
2023-03-24T07:11:25.521Z,80.00
2023-03-24T07:12:31.170Z,80.01
2023-03-24T07:13:34.401Z,80.04
2023-03-24T07:14:39.896Z,80.09
2023-03-24T07:15:42.876Z,80.11
2023-03-24T07:16:46.285Z,80.17
2023-03-24T07:18:24.034Z,80.28
2023-03-24T07:19:33.742Z,80.29
2023-03-24T07:20:55.184Z,80.38
2023-03-24T07:21:59.023Z,80.39
2023-03-24T07:23:12.821Z,80.46
2023-03-24T07:24:32.404Z,80.51
2023-03-24T07:25:46.064Z,80.54
2023-03-24T07:26:53.303Z,80.58
2023-03-24T07:27:59.119Z,80.62
2023-03-24T07:29:01.926Z,80.63
2023-03-24T07:30:14.160Z,80.71
2023-03-24T07:31:20.338Z,80.65
2023-03-24T07:32:25.798Z,80.64
2023-03-24T07:33:28.676Z,80.67
2023-03-24T07:34:32.105Z,80.76
2023-03-24T07:35:35.427Z,80.82
2023-03-24T07:36:38.323Z,80.82
2023-03-24T07:37:42.978Z,80.87
2023-03-24T07:38:45.825Z,80.94
2023-03-24T07:39:56.028Z,81.07
2023-03-24T07:40:59.905Z,81.11
2023-03-24T07:42:04.368Z,81.09
2023-03-24T07:43:15.792Z,81.18
2023-03-24T07:44:37.390Z,81.17
2023-03-24T07:45:42.100Z,81.18
2023-03-24T07:46:45.452Z,81.25
2023-03-24T07:47:48.366Z,81.24
2023-03-24T07:48:51.406Z,81.28
2023-03-24T07:49:54.226Z,81.34
2023-03-24T07:50:57.232Z,81.38
2023-03-24T07:52:18.008Z,81.51
2023-03-24T07:53:25.022Z,81.60
2023-03-24T07:54:27.965Z,81.53
2023-03-24T07:55:31.079Z,81.65
2023-03-24T07:56:42.828Z,81.65
2023-03-24T07:57:47.567Z,81.77
2023-03-24T07:58:50.694Z,81.78
2023-03-24T08:00:17.909Z,81.94
2023-03-24T08:01:27.093Z,82.04
2023-03-24T08:02:30.669Z,82.14
2023-03-24T08:03:56.415Z,82.09
2023-03-24T08:05:23.374Z,82.12
2023-03-24T08:06:45.576Z,82.26
2023-03-24T08:07:53.466Z,82.37
2023-03-24T08:08:56.534Z,82.34
2023-03-24T08:09:59.293Z,82.45
2023-03-24T08:11:02.245Z,82.65
2023-03-24T08:12:17.392Z,82.75
2023-03-24T08:13:23.233Z,82.82
2023-03-24T08:14:26.379Z,82.79
2023-03-24T08:15:29.448Z,82.88
2023-03-24T08:16:32.242Z,82.97
2023-03-24T08:17:35.947Z,82.94
2023-03-24T08:18:39.073Z,83.00
2023-03-24T08:19:56.272Z,82.96
2023-03-24T08:21:02.329Z,82.99
2023-03-24T08:22:05.131Z,83.12
2023-03-24T08:23:08.489Z,82.91
2023-03-24T08:24:11.431Z,83.01
2023-03-24T08:25:14.794Z,82.95
2023-03-24T08:26:18.084Z,82.85
2023-03-24T08:27:20.832Z,82.82
2023-03-24T08:28:24.016Z,82.86
2023-03-24T08:29:26.789Z,82.88
2023-03-24T08:30:31.035Z,82.86
2023-03-24T08:31:35.833Z,82.88
2023-03-24T08:32:44.322Z,82.91
2023-03-24T08:33:47.233Z,82.90
2023-03-24T08:34:49.936Z,82.98
2023-03-24T08:35:57.550Z,83.07
2023-03-24T08:37:00.387Z,83.12
2023-03-24T08:38:06.670Z,83.10
2023-03-24T08:39:09.945Z,83.11
2023-03-24T08:40:19.566Z,83.16
2023-03-24T08:41:30.687Z,83.12
2023-03-24T08:42:33.523Z,83.00
2023-03-24T08:43:37.616Z,82.80
2023-03-24T08:44:40.521Z,82.83
2023-03-24T08:45:43.436Z,82.87
2023-03-24T08:46:46.249Z,82.81
2023-03-24T08:47:50.684Z,82.92
2023-03-24T08:48:53.471Z,82.97
2023-03-24T08:49:58.107Z,83.04
2023-03-24T08:51:00.887Z,83.10
2023-03-24T08:52:04.020Z,83.10
2023-03-24T08:53:07.610Z,83.15
2023-03-24T08:54:12.628Z,83.19
2023-03-24T08:55:16.730Z,83.18
2023-03-24T08:56:20.386Z,83.28
2023-03-24T08:57:23.260Z,83.35
2023-03-24T08:58:26.151Z,83.18
2023-03-24T08:59:29.054Z,83.25
2023-03-24T09:00:31.877Z,83.32
2023-03-24T09:01:35.399Z,83.18
2023-03-24T09:02:38.197Z,83.12
2023-03-24T09:03:41.470Z,83.35
2023-03-24T09:04:45.956Z,83.41
2023-03-24T09:05:49.245Z,83.43
2023-03-24T09:06:53.664Z,83.53
2023-03-24T09:07:56.603Z,83.51
2023-03-24T09:08:59.398Z,83.51
2023-03-24T09:10:02.792Z,83.47
2023-03-24T09:11:06.096Z,83.56
2023-03-24T09:12:09.861Z,83.71
2023-03-24T09:13:13.178Z,83.79
2023-03-24T09:14:16.123Z,83.56
2023-03-24T09:15:18.967Z,83.47
2023-03-24T09:17:26.249Z,83.15
2023-03-24T09:18:29.398Z,82.60
2023-03-24T09:19:32.163Z,82.49
2023-03-24T09:20:34.983Z,82.33
2023-03-24T09:21:38.527Z,82.17
2023-03-24T09:22:44.216Z,82.03
2023-03-24T09:23:47.051Z,82.25
2023-03-24T09:24:50.149Z,82.00
2023-03-24T09:25:53.902Z,81.88
2023-03-24T09:26:56.758Z,81.51
2023-03-24T09:27:59.559Z,81.25
2023-03-24T09:29:02.740Z,80.87
2023-03-24T09:30:06.966Z,81.09
2023-03-24T09:31:11.719Z,80.89
2023-03-24T09:32:14.529Z,79.83
2023-03-24T09:33:17.734Z,80.21
2023-03-24T09:34:21.520Z,80.40
2023-03-24T09:35:25.753Z,80.52
2023-03-24T09:36:30.070Z,80.45
2023-03-24T09:37:35.821Z,80.68
2023-03-24T09:38:38.589Z,81.05
2023-03-24T09:39:41.317Z,80.86
2023-03-24T09:40:45.037Z,80.72
2023-03-24T09:41:50.573Z,80.59
2023-03-24T09:43:34.903Z,80.07
2023-03-24T09:44:43.350Z,79.90
2023-03-24T09:45:57.599Z,79.62
2023-03-24T09:47:06.578Z,78.97
2023-03-24T09:48:18.554Z,78.82
2023-03-24T09:49:25.306Z,79.11
2023-03-24T09:50:34.982Z,78.98
2023-03-24T09:51:44.691Z,78.93
2023-03-24T09:52:53.882Z,78.67
2023-03-24T09:54:02.664Z,78.63
2023-03-24T09:55:14.381Z,78.63
2023-03-24T09:56:20.838Z,78.49
2023-03-24T09:57:34.427Z,78.35
2023-03-24T09:58:41.525Z,78.64
2023-03-24T09:59:44.329Z,78.49
2023-03-24T10:00:47.377Z,78.60
2023-03-24T10:01:50.747Z,78.70
2023-03-24T10:02:57.633Z,78.74
2023-03-24T10:04:00.779Z,78.69
2023-03-24T10:05:13.282Z,78.73
2023-03-24T10:06:26.866Z,78.61
2023-03-24T10:08:09.415Z,78.00
2023-03-24T10:09:21.900Z,77.61
2023-03-24T10:10:36.709Z,77.62
2023-03-24T10:11:52.556Z,77.86
2023-03-24T10:13:05.210Z,77.65
2023-03-24T10:14:22.412Z,77.64
2023-03-24T10:15:49.143Z,77.63
2023-03-24T10:16:58.090Z,77.56
2023-03-24T10:18:05.303Z,77.66
2023-03-24T10:19:27.835Z,77.67
2023-03-24T10:20:41.292Z,77.56
2023-03-24T10:22:11.180Z,77.55
2023-03-24T10:23:31.466Z,77.65
2023-03-24T10:24:56.878Z,77.57
2023-03-24T10:26:14.354Z,77.75
2023-03-24T10:27:17.055Z,77.86
2023-03-24T10:28:38.389Z,77.92
2023-03-24T10:29:43.186Z,77.87
2023-03-24T10:30:49.533Z,77.90
2023-03-24T10:32:02.550Z,78.03
2023-03-24T10:33:05.493Z,78.01
2023-03-24T10:34:12.726Z,78.05
2023-03-24T10:35:21.514Z,78.01
2023-03-24T10:36:25.285Z,78.08
2023-03-24T10:37:31.016Z,77.98
2023-03-24T10:38:34.056Z,77.90
2023-03-24T10:39:44.921Z,77.83
2023-03-24T10:40:49.422Z,77.92
2023-03-24T10:41:54.751Z,78.01
2023-03-24T10:43:07.126Z,77.96
2023-03-24T10:44:14.117Z,77.87
2023-03-24T10:45:27.050Z,77.95
2023-03-24T10:46:32.113Z,77.81
2023-03-24T10:47:35.018Z,77.70
2023-03-24T10:48:44.682Z,77.54
2023-03-24T10:49:55.060Z,77.56
2023-03-24T10:50:59.732Z,77.39
2023-03-24T10:52:09.108Z,77.43
2023-03-24T10:53:19.896Z,77.41
2023-03-24T10:54:25.533Z,77.45
2023-03-24T10:55:39.020Z,77.34
2023-03-24T10:56:52.067Z,77.36
2023-03-24T10:57:57.693Z,77.30
2023-03-24T10:59:00.493Z,77.22
2023-03-24T11:00:19.345Z,77.20
2023-03-24T11:01:27.327Z,77.03
2023-03-24T11:02:31.944Z,77.06
2023-03-24T11:03:37.854Z,77.12
2023-03-24T11:04:45.003Z,77.14
2023-03-24T11:05:47.981Z,77.27
2023-03-24T11:07:16.168Z,77.33
2023-03-24T11:08:28.754Z,77.21
2023-03-24T11:09:42.900Z,77.08
2023-03-24T11:10:46.520Z,77.09
2023-03-24T11:11:50.836Z,77.11
2023-03-24T11:12:53.521Z,77.09
2023-03-24T11:14:01.446Z,76.99
2023-03-24T11:15:21.774Z,77.05
2023-03-24T11:16:36.771Z,77.07
2023-03-24T11:17:39.664Z,76.98
2023-03-24T11:19:22.977Z,77.07
2023-03-24T11:20:39.389Z,77.06
2023-03-24T11:23:10.684Z,77.14
2023-03-24T11:24:17.131Z,77.07
2023-03-24T11:25:19.912Z,77.06
2023-03-24T11:26:37.487Z,77.05
2023-03-24T11:27:43.446Z,76.97
2023-03-24T11:28:47.237Z,77.10
2023-03-24T11:29:54.611Z,77.09
2023-03-24T11:30:58.153Z,76.99
2023-03-24T11:32:05.506Z,77.12
2023-03-24T11:33:19.165Z,77.12
2023-03-24T11:34:34.329Z,77.10
2023-03-24T11:35:42.107Z,77.09
2023-03-24T11:36:54.616Z,76.92
2023-03-24T11:37:57.430Z,76.88
2023-03-24T11:39:03.796Z,76.91
2023-03-24T11:40:12.283Z,76.86
2023-03-24T11:41:21.848Z,76.92
2023-03-24T11:42:27.756Z,76.90
2023-03-24T11:43:31.622Z,76.91
2023-03-24T11:44:53.364Z,76.92
2023-03-24T11:46:13.560Z,76.90
2023-03-24T11:47:38.544Z,76.99
2023-03-24T11:48:52.522Z,77.03
2023-03-24T11:50:10.412Z,76.94
2023-03-24T11:51:19.128Z,76.92
2023-03-24T11:52:31.500Z,76.91
2023-03-24T11:53:51.614Z,76.82
2023-03-24T11:54:54.514Z,76.83
2023-03-24T11:56:16.668Z,76.86
2023-03-24T11:57:35.586Z,76.85
2023-03-24T11:58:46.919Z,76.82
2023-03-24T11:59:58.281Z,76.86
2023-03-24T12:01:05.400Z,76.96
2023-03-24T12:02:08.108Z,76.91
2023-03-24T12:03:20.317Z,76.88
2023-03-24T12:04:44.394Z,76.87
2023-03-24T12:06:26.144Z,76.60
2023-03-24T12:07:50.042Z,76.61
2023-03-24T12:09:34.493Z,76.41
2023-03-24T12:11:16.737Z,76.28
2023-03-24T12:12:45.425Z,75.99
2023-03-24T12:13:52.062Z,75.67
2023-03-24T12:15:27.967Z,75.96
2023-03-24T12:16:42.036Z,75.83
2023-03-24T12:18:09.998Z,75.29
2023-03-24T12:19:44.162Z,75.22
2023-03-24T12:20:58.515Z,74.79
2023-03-24T12:22:13.283Z,74.48
2023-03-24T12:23:46.687Z,74.68
2023-03-24T12:25:08.136Z,74.22
2023-03-24T12:26:17.495Z,73.92
2023-03-24T12:27:36.512Z,73.61
2023-03-24T12:29:43.674Z,72.93
2023-03-24T12:31:11.998Z,72.66
2023-03-24T12:32:43.188Z,72.65
2023-03-24T12:34:36.505Z,72.87
2023-03-24T12:35:51.371Z,72.66
2023-03-24T12:36:54.263Z,72.37
2023-03-24T12:38:32.392Z,72.20
2023-03-24T12:39:44.951Z,71.88
2023-03-24T12:41:12.209Z,71.62
2023-03-24T12:42:21.016Z,71.40
2023-03-24T12:43:41.252Z,71.17
2023-03-24T12:44:46.833Z,70.88
2023-03-24T12:45:54.030Z,70.89
2023-03-24T12:46:56.757Z,70.80
2023-03-24T12:48:21.048Z,70.87
2023-03-24T12:49:23.880Z,70.80
2023-03-24T12:50:51.457Z,70.82
2023-03-24T12:52:16.710Z,70.63
2023-03-24T12:53:41.979Z,70.51
2023-03-24T12:54:50.473Z,70.25
2023-03-24T12:55:59.901Z,70.38
2023-03-24T12:57:10.592Z,70.52
2023-03-24T12:58:43.120Z,70.52
2023-03-24T12:59:57.725Z,70.54
2023-03-24T13:01:04.591Z,70.32
2023-03-24T13:02:28.636Z,70.25
2023-03-24T13:03:41.574Z,69.97
2023-03-24T13:04:48.445Z,70.16
2023-03-24T13:05:59.801Z,70.05
2023-03-24T13:07:12.655Z,70.11
2023-03-24T13:08:23.746Z,69.89
2023-03-24T13:09:47.710Z,69.81
2023-03-24T13:10:54.518Z,69.95
2023-03-24T13:12:07.991Z,70.00
2023-03-24T13:13:20.418Z,70.16
2023-03-24T13:14:31.309Z,70.23
2023-03-24T13:15:38.708Z,70.20
2023-03-24T13:16:45.035Z,70.00
2023-03-24T13:18:09.136Z,70.10
2023-03-24T13:19:24.189Z,69.98
2023-03-24T13:20:33.534Z,70.02
2023-03-24T13:21:37.789Z,69.91
2023-03-24T13:22:41.392Z,69.87
2023-03-24T13:23:54.948Z,69.82
2023-03-24T13:24:58.284Z,69.53
2023-03-24T13:26:25.830Z,69.74
2023-03-24T13:27:41.398Z,69.97
2023-03-24T13:28:56.371Z,69.86
2023-03-24T13:30:28.292Z,69.86
2023-03-24T13:31:56.932Z,69.56
2023-03-24T13:33:06.126Z,69.18
2023-03-24T13:34:21.103Z,69.12
2023-03-24T13:35:59.395Z,69.13
2023-03-24T13:37:15.507Z,69.20
2023-03-24T13:38:33.020Z,69.11
2023-03-24T13:39:36.450Z,69.17
2023-03-24T13:40:40.743Z,69.26
2023-03-24T13:41:53.059Z,69.30
2023-03-24T13:43:06.876Z,69.16
2023-03-24T13:44:20.511Z,69.24
2023-03-24T13:45:32.174Z,69.24
2023-03-24T13:46:41.658Z,69.11
2023-03-24T13:47:48.530Z,69.16
2023-03-24T13:48:54.901Z,68.96
2023-03-24T13:50:04.255Z,68.66
2023-03-24T13:51:15.420Z,68.30
2023-03-24T13:52:40.159Z,68.23
2023-03-24T13:53:51.943Z,68.24
2023-03-24T13:54:59.772Z,68.30
2023-03-24T13:56:05.731Z,68.36
2023-03-24T13:57:20.493Z,68.45
2023-03-24T13:58:28.349Z,67.63
2023-03-24T13:59:38.921Z,68.06
2023-03-24T14:01:09.719Z,68.16
2023-03-24T14:02:44.087Z,68.20
2023-03-24T14:04:10.683Z,67.99
2023-03-24T14:05:23.956Z,67.82
2023-03-24T14:06:51.253Z,67.78
2023-03-24T14:08:03.105Z,67.92
2023-03-24T14:09:14.781Z,68.05
2023-03-24T14:10:19.134Z,68.04
2023-03-24T14:12:03.742Z,67.66
2023-03-24T14:13:12.598Z,67.68
2023-03-24T14:14:15.480Z,67.70
2023-03-24T14:15:30.020Z,67.63
2023-03-24T14:16:41.456Z,67.51
2023-03-24T14:17:49.819Z,67.59
2023-03-24T14:19:09.304Z,67.42
2023-03-24T14:20:13.561Z,67.30
2023-03-24T14:21:28.570Z,67.25
2023-03-24T14:22:36.330Z,66.86
2023-03-24T14:23:48.202Z,66.63
2023-03-24T14:25:02.882Z,66.69
2023-03-24T14:26:34.382Z,66.76
2023-03-24T14:27:42.465Z,66.92
2023-03-24T14:28:50.396Z,66.71
2023-03-24T14:29:54.330Z,66.46
2023-03-24T14:31:13.347Z,66.52
2023-03-24T14:32:20.661Z,66.57
2023-03-24T14:33:25.920Z,66.45
2023-03-24T14:34:30.029Z,66.46
2023-03-24T14:35:32.772Z,66.32
2023-03-24T14:36:41.068Z,66.43
2023-03-24T14:37:52.090Z,66.49
2023-03-24T14:38:55.081Z,66.43
2023-03-24T14:39:58.935Z,66.41
2023-03-24T14:41:07.930Z,66.25
2023-03-24T14:42:33.704Z,66.29
2023-03-24T14:43:39.595Z,66.02
2023-03-24T14:45:27.674Z,66.13
2023-03-24T14:46:43.052Z,66.28
2023-03-24T14:47:46.026Z,66.25
2023-03-24T14:49:26.067Z,66.05
2023-03-24T14:50:29.083Z,65.66
2023-03-24T14:51:36.897Z,65.55
2023-03-24T14:52:51.205Z,65.61
2023-03-24T14:53:58.011Z,65.69
2023-03-24T14:55:06.010Z,65.83
2023-03-24T14:56:15.457Z,65.90
2023-03-24T14:57:21.203Z,65.46
2023-03-24T14:58:39.566Z,65.46
2023-03-24T15:00:16.242Z,65.60
2023-03-24T15:01:20.408Z,65.29
2023-03-24T15:02:31.635Z,65.56
2023-03-24T15:03:39.356Z,65.55
2023-03-24T15:05:23.089Z,65.41
2023-03-24T15:06:26.209Z,65.40
2023-03-24T15:07:29.035Z,65.41
2023-03-24T15:08:31.771Z,65.58
2023-03-24T15:09:38.601Z,65.57
2023-03-24T15:11:04.783Z,65.51
2023-03-24T15:12:08.041Z,65.36
2023-03-24T15:13:40.381Z,65.09
2023-03-24T15:14:43.850Z,65.11